sensor_id;sensor_type;location;lat;lon;timestamp;pressure;altitude;pressure_sealevel;temperature;humidity
9421;BME280;4749;51.398;5.466;2023-06-04T00:02:25;101874.13;;;16.40;51.53
9421;BME280;4749;51.398;5.466;2023-06-04T00:04:52;101875.88;;;16.39;51.79
9421;BME280;4749;51.398;5.466;2023-06-04T00:07:19;101871.47;;;16.35;52.08
9421;BME280;4749;51.398;5.466;2023-06-04T00:09:46;101867.94;;;16.35;51.90
9421;BME280;4749;51.398;5.466;2023-06-04T00:12:14;101865.31;;;16.31;52.05
9421;BME280;4749;51.398;5.466;2023-06-04T00:14:41;101867.06;;;16.29;52.25
9421;BME280;4749;51.398;5.466;2023-06-04T00:17:10;101864.47;;;16.25;52.53
9421;BME280;4749;51.398;5.466;2023-06-04T00:19:40;101868.00;;;16.21;52.65
9421;BME280;4749;51.398;5.466;2023-06-04T00:22:08;101861.84;;;16.17;53.07
9421;BME280;4749;51.398;5.466;2023-06-04T00:24:37;101865.38;;;16.12;53.30
9421;BME280;4749;51.398;5.466;2023-06-04T00:27:07;101865.41;;;16.05;53.64
9421;BME280;4749;51.398;5.466;2023-06-04T00:29:35;101868.06;;;16.04;53.68
9421;BME280;4749;51.398;5.466;2023-06-04T00:32:03;101868.13;;;15.98;53.77
9421;BME280;4749;51.398;5.466;2023-06-04T00:34:30;101850.44;;;15.94;53.97
9421;BME280;4749;51.398;5.466;2023-06-04T00:36:58;101857.53;;;15.90;54.41
9421;BME280;4749;51.398;5.466;2023-06-04T00:39:25;101854.88;;;15.87;54.58
9421;BME280;4749;51.398;5.466;2023-06-04T00:41:52;101853.13;;;15.83;54.85
9421;BME280;4749;51.398;5.466;2023-06-04T00:44:19;101867.25;;;15.79;54.91
9421;BME280;4749;51.398;5.466;2023-06-04T00:46:48;101853.16;;;15.75;55.48
9421;BME280;4749;51.398;5.466;2023-06-04T00:49:16;101856.69;;;15.73;55.61
9421;BME280;4749;51.398;5.466;2023-06-04T00:51:43;101855.81;;;15.69;55.86
9421;BME280;4749;51.398;5.466;2023-06-04T00:54:12;101858.47;;;15.66;56.21
9421;BME280;4749;51.398;5.466;2023-06-04T00:56:39;101850.50;;;15.63;56.08
9421;BME280;4749;51.398;5.466;2023-06-04T00:59:07;101854.06;;;15.61;56.41
9421;BME280;4749;51.398;5.466;2023-06-04T01:01:55;101862.88;;;15.58;57.04
9421;BME280;4749;51.398;5.466;2023-06-04T01:04:50;101860.22;;;15.52;57.69
9421;BME280;4749;51.398;5.466;2023-06-04T01:07:22;101855.81;;;15.48;57.34
9421;BME280;4749;51.398;5.466;2023-06-04T01:09:50;101856.69;;;15.44;57.73
9421;BME280;4749;51.398;5.466;2023-06-04T01:12:17;101852.28;;;15.41;57.85
9421;BME280;4749;51.398;5.466;2023-06-04T01:14:44;101858.50;;;15.39;58.14
9421;BME280;4749;51.398;5.466;2023-06-04T01:17:39;101855.84;;;15.33;58.65
9421;BME280;4749;51.398;5.466;2023-06-04T01:20:40;101859.38;;;15.27;59.54
9421;BME280;4749;51.398;5.466;2023-06-04T01:26:12;101862.91;;;15.18;59.84
9421;BME280;4749;51.398;5.466;2023-06-04T01:28:40;101869.97;;;15.16;60.22
9421;BME280;4749;51.398;5.466;2023-06-04T01:31:09;101869.09;;;15.14;60.62
9421;BME280;4749;51.398;5.466;2023-06-04T01:33:36;101864.66;;;15.12;60.82
9421;BME280;4749;51.398;5.466;2023-06-04T01:36:04;101870.00;;;15.13;60.97
9421;BME280;4749;51.398;5.466;2023-06-04T01:38:31;101866.44;;;15.10;61.13
9421;BME280;4749;51.398;5.466;2023-06-04T01:40:58;101868.22;;;15.06;61.62
9421;BME280;4749;51.398;5.466;2023-06-04T01:43:29;101870.84;;;15.03;62.07
9421;BME280;4749;51.398;5.466;2023-06-04T01:45:56;101863.78;;;14.99;62.41
9421;BME280;4749;51.398;5.466;2023-06-04T01:48:23;101870.84;;;14.97;62.62
9421;BME280;4749;51.398;5.466;2023-06-04T01:50:50;101868.19;;;14.91;63.10
9421;BME280;4749;51.398;5.466;2023-06-04T01:53:18;101867.28;;;14.87;63.53
9421;BME280;4749;51.398;5.466;2023-06-04T01:55:45;101869.94;;;14.84;63.69
9421;BME280;4749;51.398;5.466;2023-06-04T01:58:12;101857.59;;;14.82;64.02
9421;BME280;4749;51.398;5.466;2023-06-04T02:00:39;101870.84;;;14.80;64.24
9421;BME280;4749;51.398;5.466;2023-06-04T02:03:06;101867.28;;;14.77;64.92
9421;BME280;4749;51.398;5.466;2023-06-04T02:05:35;101858.47;;;14.73;64.89
9421;BME280;4749;51.398;5.466;2023-06-04T02:08:03;101864.63;;;14.69;65.44
9421;BME280;4749;51.398;5.466;2023-06-04T02:10:31;101862.84;;;14.67;66.04
9421;BME280;4749;51.398;5.466;2023-06-04T02:13:02;101862.88;;;14.63;66.58
9421;BME280;4749;51.398;5.466;2023-06-04T02:15:31;101854.91;;;14.60;67.07
9421;BME280;4749;51.398;5.466;2023-06-04T02:18:16;101858.44;;;14.58;68.18
9421;BME280;4749;51.398;5.466;2023-06-04T02:20:45;101849.59;;;14.54;68.06
9421;BME280;4749;51.398;5.466;2023-06-04T02:23:14;101861.94;;;14.52;68.96
9421;BME280;4749;51.398;5.466;2023-06-04T02:25:42;101860.19;;;14.50;68.98
9421;BME280;4749;51.398;5.466;2023-06-04T02:28:13;101851.38;;;14.46;70.12
9421;BME280;4749;51.398;5.466;2023-06-04T02:30:41;101853.94;;;14.42;70.55
9421;BME280;4749;51.398;5.466;2023-06-04T02:33:08;101853.06;;;14.40;71.76
9421;BME280;4749;51.398;5.466;2023-06-04T02:35:37;101860.97;;;14.35;72.14
9421;BME280;4749;51.398;5.466;2023-06-04T02:38:05;101858.31;;;14.32;72.80
9421;BME280;4749;51.398;5.466;2023-06-04T02:40:32;101861.84;;;14.31;74.48
9421;BME280;4749;51.398;5.466;2023-06-04T02:42:59;101859.19;;;14.28;74.71
9421;BME280;4749;51.398;5.466;2023-06-04T02:45:26;101861.81;;;14.26;75.78
9421;BME280;4749;51.398;5.466;2023-06-04T02:47:53;101861.81;;;14.23;76.38
9421;BME280;4749;51.398;5.466;2023-06-04T02:50:20;101859.16;;;14.20;78.08
9421;BME280;4749;51.398;5.466;2023-06-04T02:52:48;101850.34;;;14.17;79.22
9421;BME280;4749;51.398;5.466;2023-06-04T02:55:15;101862.69;;;14.15;80.38
9421;BME280;4749;51.398;5.466;2023-06-04T02:57:43;101857.38;;;14.13;80.73
9421;BME280;4749;51.398;5.466;2023-06-04T03:00:14;101860.00;;;14.10;82.09
9421;BME280;4749;51.398;5.466;2023-06-04T03:02:45;101861.75;;;14.06;82.68
9421;BME280;4749;51.398;5.466;2023-06-04T03:05:15;101860.00;;;14.05;83.22
9421;BME280;4749;51.398;5.466;2023-06-04T03:07:45;101858.19;;;14.03;83.32
9421;BME280;4749;51.398;5.466;2023-06-04T03:10:14;101859.97;;;14.01;83.85
9421;BME280;4749;51.398;5.466;2023-06-04T03:12:42;101863.47;;;13.98;84.95
9421;BME280;4749;51.398;5.466;2023-06-04T03:15:10;101859.91;;;13.95;85.57
9421;BME280;4749;51.398;5.466;2023-06-04T03:17:38;101864.31;;;13.93;86.14
9421;BME280;4749;51.398;5.466;2023-06-04T03:20:06;101870.50;;;13.92;87.14
9421;BME280;4749;51.398;5.466;2023-06-04T03:22:34;101872.25;;;13.90;88.22
9421;BME280;4749;51.398;5.466;2023-06-04T03:25:03;101864.31;;;13.90;88.14
9421;BME280;4749;51.398;5.466;2023-06-04T03:27:32;101861.69;;;13.88;89.14
9421;BME280;4749;51.398;5.466;2023-06-04T03:30:00;101867.81;;;13.86;89.44
9421;BME280;4749;51.398;5.466;2023-06-04T03:32:27;101856.34;;;13.84;90.16
9421;BME280;4749;51.398;5.466;2023-06-04T03:34:54;101868.69;;;13.83;90.83
9421;BME280;4749;51.398;5.466;2023-06-04T03:37:21;101868.69;;;13.82;91.76
9421;BME280;4749;51.398;5.466;2023-06-04T03:39:49;101871.31;;;13.82;91.85
9421;BME280;4749;51.398;5.466;2023-06-04T03:42:16;101866.03;;;13.83;92.64
9421;BME280;4749;51.398;5.466;2023-06-04T03:44:43;101868.69;;;13.83;93.39
9421;BME280;4749;51.398;5.466;2023-06-04T03:47:10;101867.81;;;13.84;93.43
9421;BME280;4749;51.398;5.466;2023-06-04T03:49:37;101866.03;;;13.86;93.30
9421;BME280;4749;51.398;5.466;2023-06-04T03:52:05;101863.41;;;13.86;94.13
9421;BME280;4749;51.398;5.466;2023-06-04T03:54:32;101873.09;;;13.86;94.57
9421;BME280;4749;51.398;5.466;2023-06-04T03:56:59;101860.75;;;13.86;95.19
9421;BME280;4749;51.398;5.466;2023-06-04T03:59:27;101862.53;;;13.87;95.92
9421;BME280;4749;51.398;5.466;2023-06-04T04:01:54;101869.59;;;13.90;95.73
9421;BME280;4749;51.398;5.466;2023-06-04T04:04:21;101870.50;;;13.90;96.30
9421;BME280;4749;51.398;5.466;2023-06-04T04:06:48;101868.72;;;13.92;96.31
9421;BME280;4749;51.398;5.466;2023-06-04T04:09:16;101866.97;;;13.93;96.69
9421;BME280;4749;51.398;5.466;2023-06-04T04:11:43;101872.28;;;13.97;97.09
9421;BME280;4749;51.398;5.466;2023-06-04T04:14:10;101875.81;;;13.99;97.23
9421;BME280;4749;51.398;5.466;2023-06-04T04:16:37;101873.25;;;14.13;97.15
9421;BME280;4749;51.398;5.466;2023-06-04T04:19:04;101869.78;;;14.35;97.11
9421;BME280;4749;51.398;5.466;2023-06-04T04:21:37;101871.66;;;14.61;96.39
9421;BME280;4749;51.398;5.466;2023-06-04T04:24:04;101874.34;;;14.84;95.32
9421;BME280;4749;51.398;5.466;2023-06-04T04:26:32;101878.78;;;15.05;94.56
9421;BME280;4749;51.398;5.466;2023-06-04T04:28:59;101871.75;;;15.22;93.22
9421;BME280;4749;51.398;5.466;2023-06-04T04:31:27;101875.25;;;15.38;92.62
9421;BME280;4749;51.398;5.466;2023-06-04T04:33:57;101872.56;;;15.55;91.75
9421;BME280;4749;51.398;5.466;2023-06-04T04:36:25;101878.78;;;15.69;90.80
9421;BME280;4749;51.398;5.466;2023-06-04T04:38:52;101873.44;;;15.80;90.21
9421;BME280;4749;51.398;5.466;2023-06-04T04:41:21;101873.44;;;15.92;89.18
9421;BME280;4749;51.398;5.466;2023-06-04T04:43:53;101880.47;;;16.02;88.50
9421;BME280;4749;51.398;5.466;2023-06-04T04:46:20;101886.66;;;16.07;87.92
9421;BME280;4749;51.398;5.466;2023-06-04T04:48:47;101880.41;;;16.14;87.60
9421;BME280;4749;51.398;5.466;2023-06-04T04:51:14;101883.03;;;16.20;86.84
9421;BME280;4749;51.398;5.466;2023-06-04T04:53:42;101876.88;;;16.23;86.48
9421;BME280;4749;51.398;5.466;2023-06-04T04:56:10;101876.84;;;16.21;85.97
9421;BME280;4749;51.398;5.466;2023-06-04T04:58:37;101873.31;;;16.19;85.46
9421;BME280;4749;51.398;5.466;2023-06-04T05:01:04;101878.63;;;16.21;85.37
9421;BME280;4749;51.398;5.466;2023-06-04T05:03:32;101874.19;;;16.24;85.09
9421;BME280;4749;51.398;5.466;2023-06-04T05:05:59;101885.66;;;16.28;84.75
9421;BME280;4749;51.398;5.466;2023-06-04T05:08:26;101879.47;;;16.29;84.56
9421;BME280;4749;51.398;5.466;2023-06-04T05:10:53;101883.91;;;16.31;84.33
9421;BME280;4749;51.398;5.466;2023-06-04T05:13:21;101882.09;;;16.35;83.93
9421;BME280;4749;51.398;5.466;2023-06-04T05:15:49;101889.16;;;16.42;83.72
9421;BME280;4749;51.398;5.466;2023-06-04T05:18:20;101888.22;;;16.51;83.60
9421;BME280;4749;51.398;5.466;2023-06-04T05:20:47;101889.94;;;16.55;82.95
9421;BME280;4749;51.398;5.466;2023-06-04T05:23:15;101890.81;;;16.61;82.71
9421;BME280;4749;51.398;5.466;2023-06-04T05:25:42;101891.66;;;16.68;82.28
9421;BME280;4749;51.398;5.466;2023-06-04T05:28:09;101891.66;;;16.74;81.95
9421;BME280;4749;51.398;5.466;2023-06-04T05:30:37;101895.13;;;16.81;81.61
9421;BME280;4749;51.398;5.466;2023-06-04T05:33:08;101887.13;;;16.87;81.08
9421;BME280;4749;51.398;5.466;2023-06-04T05:35:48;101887.13;;;16.92;80.61
9421;BME280;4749;51.398;5.466;2023-06-04T05:38:15;101887.94;;;16.97;80.27
9421;BME280;4749;51.398;5.466;2023-06-04T05:40:45;101892.34;;;17.02;80.20
9421;BME280;4749;51.398;5.466;2023-06-04T05:43:13;101884.34;;;17.08;79.67
9421;BME280;4749;51.398;5.466;2023-06-04T05:45:40;101893.13;;;17.16;79.50
9421;BME280;4749;51.398;5.466;2023-06-04T05:48:07;101891.31;;;17.22;79.30
9421;BME280;4749;51.398;5.466;2023-06-04T05:50:35;101888.59;;;17.28;79.20
9421;BME280;4749;51.398;5.466;2023-06-04T05:53:02;101892.97;;;17.36;78.92
9421;BME280;4749;51.398;5.466;2023-06-04T05:55:29;101905.28;;;17.45;78.18
9421;BME280;4749;51.398;5.466;2023-06-04T05:57:56;101898.16;;;17.49;77.78
9421;BME280;4749;51.398;5.466;2023-06-04T06:00:24;101903.41;;;17.56;77.31
9421;BME280;4749;51.398;5.466;2023-06-04T06:02:51;101904.22;;;17.63;77.06
9421;BME280;4749;51.398;5.466;2023-06-04T06:05:20;101898.81;;;17.73;76.82
9421;BME280;4749;51.398;5.466;2023-06-04T06:07:47;101904.97;;;17.83;76.31
9421;BME280;4749;51.398;5.466;2023-06-04T06:10:14;101906.63;;;17.92;75.71
9421;BME280;4749;51.398;5.466;2023-06-04T06:12:42;101912.75;;;18.00;75.30
9421;BME280;4749;51.398;5.466;2023-06-04T06:15:10;101906.44;;;18.07;75.33
9421;BME280;4749;51.398;5.466;2023-06-04T06:17:38;101913.41;;;18.20;75.25
9421;BME280;4749;51.398;5.466;2023-06-04T06:20:06;101914.13;;;18.35;74.97
9421;BME280;4749;51.398;5.466;2023-06-04T06:22:34;101908.59;;;18.48;74.47
9421;BME280;4749;51.398;5.466;2023-06-04T06:25:03;101918.19;;;18.62;73.91
9421;BME280;4749;51.398;5.466;2023-06-04T06:27:32;101916.25;;;18.76;73.26
9421;BME280;4749;51.398;5.466;2023-06-04T06:29:59;101920.53;;;18.86;72.99
9421;BME280;4749;51.398;5.466;2023-06-04T06:32:26;101922.22;;;18.93;72.49
9421;BME280;4749;51.398;5.466;2023-06-04T06:34:54;101931.00;;;19.01;71.88
9421;BME280;4749;51.398;5.466;2023-06-04T06:37:21;101929.16;;;19.05;71.15
9421;BME280;4749;51.398;5.466;2023-06-04T06:39:48;101921.09;;;19.08;70.67
9421;BME280;4749;51.398;5.466;2023-06-04T06:42:15;101924.56;;;19.13;70.30
9421;BME280;4749;51.398;5.466;2023-06-04T06:44:47;101926.22;;;19.22;69.81
9421;BME280;4749;51.398;5.466;2023-06-04T06:47:14;101931.41;;;19.31;69.66
9421;BME280;4749;51.398;5.466;2023-06-04T06:49:41;101925.06;;;19.38;68.80
9421;BME280;4749;51.398;5.466;2023-06-04T06:52:09;101936.50;;;19.45;68.38
9421;BME280;4749;51.398;5.466;2023-06-04T06:54:36;101940.84;;;19.50;68.13
9421;BME280;4749;51.398;5.466;2023-06-04T06:57:04;101934.50;;;19.59;67.52
9421;BME280;4749;51.398;5.466;2023-06-04T06:59:35;101943.25;;;19.68;67.08
9421;BME280;4749;51.398;5.466;2023-06-04T07:02:05;101948.41;;;19.78;66.98
9421;BME280;4749;51.398;5.466;2023-06-04T07:04:32;101944.66;;;19.88;66.45
9421;BME280;4749;51.398;5.466;2023-06-04T07:06:59;101946.25;;;19.98;66.10
9421;BME280;4749;51.398;5.466;2023-06-04T07:09:26;101945.25;;;20.04;65.46
9421;BME280;4749;51.398;5.466;2023-06-04T07:11:55;101953.06;;;20.14;65.28
9421;BME280;4749;51.398;5.466;2023-06-04T07:14:22;101943.94;;;20.24;64.97
9421;BME280;4749;51.398;5.466;2023-06-04T07:16:49;101946.41;;;20.35;64.71
9421;BME280;4749;51.398;5.466;2023-06-04T07:19:17;101946.25;;;20.44;64.20
9421;BME280;4749;51.398;5.466;2023-06-04T07:21:44;101946.94;;;20.54;63.55
9421;BME280;4749;51.398;5.466;2023-06-04T07:24:11;101942.28;;;20.64;63.49
9421;BME280;4749;51.398;5.466;2023-06-04T07:26:39;101951.00;;;20.72;62.63
9421;BME280;4749;51.398;5.466;2023-06-04T07:29:06;101956.19;;;20.79;62.35
9421;BME280;4749;51.398;5.466;2023-06-04T07:31:34;101954.19;;;20.89;61.93
9421;BME280;4749;51.398;5.466;2023-06-04T07:34:01;101953.09;;;20.98;61.41
9421;BME280;4749;51.398;5.466;2023-06-04T07:36:29;101959.13;;;21.06;60.94
9421;BME280;4749;51.398;5.466;2023-06-04T07:38:56;101954.56;;;21.11;60.51
9421;BME280;4749;51.398;5.466;2023-06-04T07:41:23;101953.50;;;21.18;60.46
9421;BME280;4749;51.398;5.466;2023-06-04T07:43:52;101950.66;;;21.27;59.62
9421;BME280;4749;51.398;5.466;2023-06-04T07:46:19;101953.16;;;21.33;59.52
9421;BME280;4749;51.398;5.466;2023-06-04T07:48:47;101950.25;;;21.43;59.02
9421;BME280;4749;51.398;5.466;2023-06-04T07:51:14;101954.47;;;21.53;58.89
9421;BME280;4749;51.398;5.466;2023-06-04T07:53:41;101954.25;;;21.62;58.86
9421;BME280;4749;51.398;5.466;2023-06-04T07:56:09;101954.88;;;21.72;58.39
9421;BME280;4749;51.398;5.466;2023-06-04T07:58:36;101956.44;;;21.80;58.06
9421;BME280;4749;51.398;5.466;2023-06-04T08:01:03;101956.34;;;21.83;57.64
9421;BME280;4749;51.398;5.466;2023-06-04T08:03:31;101956.13;;;21.91;57.03
9421;BME280;4749;51.398;5.466;2023-06-04T08:05:58;101955.06;;;21.98;57.03
9421;BME280;4749;51.398;5.466;2023-06-04T08:08:30;101954.84;;;22.07;56.75
9421;BME280;4749;51.398;5.466;2023-06-04T08:10:58;101951.06;;;22.14;56.32
9421;BME280;4749;51.398;5.466;2023-06-04T08:13:25;101957.00;;;22.26;56.41
9421;BME280;4749;51.398;5.466;2023-06-04T08:15:55;101958.47;;;22.37;55.86
9421;BME280;4749;51.398;5.466;2023-06-04T08:18:22;101955.59;;;22.43;55.60
9421;BME280;4749;51.398;5.466;2023-06-04T08:20:49;101958.03;;;22.51;55.35
9421;BME280;4749;51.398;5.466;2023-06-04T08:23:16;101954.38;;;22.55;54.85
9421;BME280;4749;51.398;5.466;2023-06-04T08:25:43;101952.47;;;22.59;54.35
9421;BME280;4749;51.398;5.466;2023-06-04T08:28:11;101954.09;;;22.64;54.26
9421;BME280;4749;51.398;5.466;2023-06-04T08:30:40;101953.81;;;22.73;54.03
9421;BME280;4749;51.398;5.466;2023-06-04T08:33:07;101950.78;;;22.84;53.96
9421;BME280;4749;51.398;5.466;2023-06-04T08:35:37;101948.69;;;22.95;53.63
9421;BME280;4749;51.398;5.466;2023-06-04T08:38:04;101947.53;;;23.04;53.28
9421;BME280;4749;51.398;5.466;2023-06-04T08:40:32;101949.13;;;23.10;52.75
9421;BME280;4749;51.398;5.466;2023-06-04T08:43:00;101955.22;;;23.15;52.19
9421;BME280;4749;51.398;5.466;2023-06-04T08:45:27;101960.28;;;23.24;51.88
9421;BME280;4749;51.398;5.466;2023-06-04T08:47:56;101960.88;;;23.34;51.37
9421;BME280;4749;51.398;5.466;2023-06-04T08:50:24;101964.13;;;23.43;51.43
9421;BME280;4749;51.398;5.466;2023-06-04T08:52:55;101959.28;;;23.54;51.23
9421;BME280;4749;51.398;5.466;2023-06-04T08:55:23;101957.28;;;23.61;50.85
9421;BME280;4749;51.398;5.466;2023-06-04T08:57:51;101957.03;;;23.69;50.53
9421;BME280;4749;51.398;5.466;2023-06-04T09:00:19;101957.63;;;23.77;50.27
9421;BME280;4749;51.398;5.466;2023-06-04T09:02:47;101968.13;;;23.84;49.84
9421;BME280;4749;51.398;5.466;2023-06-04T09:05:22;101966.97;;;23.92;49.33
9421;BME280;4749;51.398;5.466;2023-06-04T09:07:53;101967.63;;;23.98;48.72
9421;BME280;4749;51.398;5.466;2023-06-04T09:10:24;101971.00;;;24.05;48.80
9421;BME280;4749;51.398;5.466;2023-06-04T09:12:56;101968.84;;;24.14;48.76
9421;BME280;4749;51.398;5.466;2023-06-04T09:15:24;101969.38;;;24.24;48.28
9421;BME280;4749;51.398;5.466;2023-06-04T09:17:51;101969.13;;;24.32;47.65
9421;BME280;4749;51.398;5.466;2023-06-04T09:20:23;101972.41;;;24.40;47.21
9421;BME280;4749;51.398;5.466;2023-06-04T09:22:51;101970.25;;;24.50;46.78
9421;BME280;4749;51.398;5.466;2023-06-04T09:25:24;101977.97;;;24.59;45.89
9421;BME280;4749;51.398;5.466;2023-06-04T09:27:56;101980.66;;;24.59;45.36
9421;BME280;4749;51.398;5.466;2023-06-04T09:30:24;101972.66;;;24.57;44.74
9421;BME280;4749;51.398;5.466;2023-06-04T09:32:52;101970.06;;;24.54;44.70
9421;BME280;4749;51.398;5.466;2023-06-04T09:35:21;101975.50;;;24.53;43.94
9421;BME280;4749;51.398;5.466;2023-06-04T09:37:55;101968.38;;;24.52;43.99
9421;BME280;4749;51.398;5.466;2023-06-04T09:40:23;101966.56;;;24.52;44.00
9421;BME280;4749;51.398;5.466;2023-06-04T09:42:51;101961.97;;;24.56;43.78
9421;BME280;4749;51.398;5.466;2023-06-04T09:45:31;101965.53;;;24.56;43.79
9421;BME280;4749;51.398;5.466;2023-06-04T09:47:59;101958.28;;;24.58;43.70
9421;BME280;4749;51.398;5.466;2023-06-04T09:50:33;101974.22;;;24.63;43.36
9421;BME280;4749;51.398;5.466;2023-06-04T09:53:20;101970.50;;;24.67;42.94
9421;BME280;4749;51.398;5.466;2023-06-04T09:56:00;101959.59;;;24.70;42.74
9421;BME280;4749;51.398;5.466;2023-06-04T09:58:28;101961.31;;;24.73;42.46
9421;BME280;4749;51.398;5.466;2023-06-04T10:00:58;101970.00;;;24.79;42.60
9421;BME280;4749;51.398;5.466;2023-06-04T10:03:31;101966.13;;;24.86;42.45
9421;BME280;4749;51.398;5.466;2023-06-04T10:06:03;101966.66;;;24.96;42.35
9421;BME280;4749;51.398;5.466;2023-06-04T10:08:32;101967.16;;;25.07;42.39
9421;BME280;4749;51.398;5.466;2023-06-04T10:11:02;101955.06;;;25.17;42.32
9421;BME280;4749;51.398;5.466;2023-06-04T10:13:35;101964.50;;;25.27;42.48
9421;BME280;4749;51.398;5.466;2023-06-04T10:16:07;101960.69;;;25.33;42.11
9421;BME280;4749;51.398;5.466;2023-06-04T10:18:47;101968.78;;;25.33;41.73
9421;BME280;4749;51.398;5.466;2023-06-04T10:21:14;101961.44;;;25.37;41.69
9421;BME280;4749;51.398;5.466;2023-06-04T10:23:45;101962.00;;;25.45;41.89
9421;BME280;4749;51.398;5.466;2023-06-04T10:26:14;101966.25;;;25.50;41.43
9421;BME280;4749;51.398;5.466;2023-06-04T10:28:45;101965.44;;;25.48;41.02
9421;BME280;4749;51.398;5.466;2023-06-04T10:31:12;101956.69;;;25.43;41.07
9421;BME280;4749;51.398;5.466;2023-06-04T10:33:39;101960.97;;;25.47;41.31
9421;BME280;4749;51.398;5.466;2023-06-04T10:36:22;101959.84;;;25.53;41.03
9421;BME280;4749;51.398;5.466;2023-06-04T10:38:52;101953.34;;;25.59;41.35
9421;BME280;4749;51.398;5.466;2023-06-04T10:41:23;101949.31;;;25.69;41.68
9421;BME280;4749;51.398;5.466;2023-06-04T10:44:00;101957.72;;;25.83;41.81
9421;BME280;4749;51.398;5.466;2023-06-04T10:46:41;101967.28;;;25.90;41.15
9421;BME280;4749;51.398;5.466;2023-06-04T10:49:11;101968.28;;;25.88;41.11
9421;BME280;4749;51.398;5.466;2023-06-04T10:51:39;101964.53;;;25.92;41.28
9421;BME280;4749;51.398;5.466;2023-06-04T10:54:07;101960.72;;;25.96;40.73
9421;BME280;4749;51.398;5.466;2023-06-04T10:56:35;101958.09;;;25.94;40.74
9421;BME280;4749;51.398;5.466;2023-06-04T10:59:17;101955.22;;;25.99;40.75
9421;BME280;4749;51.398;5.466;2023-06-04T11:01:45;101959.44;;;26.04;40.84
9421;BME280;4749;51.398;5.466;2023-06-04T11:04:24;101960.84;;;26.13;40.79
9421;BME280;4749;51.398;5.466;2023-06-04T11:07:07;101957.97;;;26.18;40.74
9421;BME280;4749;51.398;5.466;2023-06-04T11:09:48;101956.06;;;26.20;40.60
9421;BME280;4749;51.398;5.466;2023-06-04T11:12:16;101943.47;;;26.20;40.43
9421;BME280;4749;51.398;5.466;2023-06-04T11:14:58;101952.22;;;26.25;40.55
9421;BME280;4749;51.398;5.466;2023-06-04T11:17:26;101949.31;;;26.30;40.47
9421;BME280;4749;51.398;5.466;2023-06-04T11:19:54;101945.53;;;26.34;40.20
9421;BME280;4749;51.398;5.466;2023-06-04T11:22:23;101942.78;;;26.35;40.32
9421;BME280;4749;51.398;5.466;2023-06-04T11:24:59;101950.53;;;26.43;40.07
9421;BME280;4749;51.398;5.466;2023-06-04T11:27:26;101945.75;;;26.50;40.25
9421;BME280;4749;51.398;5.466;2023-06-04T11:30:06;101941.78;;;26.57;40.38
9421;BME280;4749;51.398;5.466;2023-06-04T11:32:34;101936.13;;;26.63;40.16
9421;BME280;4749;51.398;5.466;2023-06-04T11:35:05;101940.19;;;26.72;40.22
9421;BME280;4749;51.398;5.466;2023-06-04T11:37:34;101929.13;;;26.78;40.01
9421;BME280;4749;51.398;5.466;2023-06-04T11:40:02;101937.06;;;26.81;39.66
9421;BME280;4749;51.398;5.466;2023-06-04T11:42:32;101930.06;;;26.77;39.30
9421;BME280;4749;51.398;5.466;2023-06-04T11:44:59;101929.28;;;26.75;39.35
9421;BME280;4749;51.398;5.466;2023-06-04T11:47:27;101921.09;;;26.76;39.53
9421;BME280;4749;51.398;5.466;2023-06-04T11:49:58;101924.41;;;26.83;39.48
9421;BME280;4749;51.398;5.466;2023-06-04T11:52:27;101934.22;;;26.84;39.22
9421;BME280;4749;51.398;5.466;2023-06-04T11:54:55;101928.47;;;26.91;39.18
9421;BME280;4749;51.398;5.466;2023-06-04T11:57:22;101923.63;;;26.98;39.33
9421;BME280;4749;51.398;5.466;2023-06-04T11:59:49;101922.41;;;27.05;39.85
9421;BME280;4749;51.398;5.466;2023-06-04T12:02:20;101933.78;;;27.12;39.79
9421;BME280;4749;51.398;5.466;2023-06-04T12:04:50;101929.25;;;27.12;39.30
9421;BME280;4749;51.398;5.466;2023-06-04T12:07:21;101928.31;;;27.13;38.92
9421;BME280;4749;51.398;5.466;2023-06-04T12:09:51;101923.63;;;27.17;39.39
9421;BME280;4749;51.398;5.466;2023-06-04T12:12:22;101927.63;;;27.27;39.06
9421;BME280;4749;51.398;5.466;2023-06-04T12:14:58;101923.66;;;27.34;38.71
9421;BME280;4749;51.398;5.466;2023-06-04T12:17:26;101926.38;;;27.34;38.74
9421;BME280;4749;51.398;5.466;2023-06-04T12:19:53;101914.75;;;27.32;39.16
9421;BME280;4749;51.398;5.466;2023-06-04T12:22:20;101911.03;;;27.35;39.56
9421;BME280;4749;51.398;5.466;2023-06-04T12:24:49;101910.00;;;27.37;39.29
9421;BME280;4749;51.398;5.466;2023-06-04T12:27:24;101919.34;;;27.30;39.32
9421;BME280;4749;51.398;5.466;2023-06-04T12:30:02;101912.28;;;27.28;39.14
9421;BME280;4749;51.398;5.466;2023-06-04T12:32:30;101914.22;;;27.26;39.50
9421;BME280;4749;51.398;5.466;2023-06-04T12:34:58;101913.16;;;27.28;39.45
9421;BME280;4749;51.398;5.466;2023-06-04T12:37:25;101917.31;;;27.35;39.70
9421;BME280;4749;51.398;5.466;2023-06-04T12:39:56;101914.22;;;27.43;39.80
9421;BME280;4749;51.398;5.466;2023-06-04T12:42:23;101915.56;;;27.52;39.90
9421;BME280;4749;51.398;5.466;2023-06-04T12:44:50;101903.81;;;27.53;39.40
9421;BME280;4749;51.398;5.466;2023-06-04T12:47:17;101909.13;;;27.54;39.89
9421;BME280;4749;51.398;5.466;2023-06-04T12:49:45;101912.63;;;27.56;39.72
9421;BME280;4749;51.398;5.466;2023-06-04T12:52:12;101896.66;;;27.52;39.54
9421;BME280;4749;51.398;5.466;2023-06-04T12:54:43;101906.59;;;27.51;39.57
9421;BME280;4749;51.398;5.466;2023-06-04T12:57:11;101897.38;;;27.55;39.88
9421;BME280;4749;51.398;5.466;2023-06-04T12:59:38;101899.69;;;27.63;39.72
9421;BME280;4749;51.398;5.466;2023-06-04T13:02:05;101899.50;;;27.66;39.78
9421;BME280;4749;51.398;5.466;2023-06-04T13:04:34;101905.84;;;27.66;40.03
9421;BME280;4749;51.398;5.466;2023-06-04T13:07:01;101903.16;;;27.65;39.72
9421;BME280;4749;51.398;5.466;2023-06-04T13:09:28;101906.53;;;27.70;40.04
9421;BME280;4749;51.398;5.466;2023-06-04T13:11:55;101901.78;;;27.75;40.06
9421;BME280;4749;51.398;5.466;2023-06-04T13:14:23;101897.56;;;27.87;40.16
9421;BME280;4749;51.398;5.466;2023-06-04T13:16:50;101904.47;;;27.92;39.99
9421;BME280;4749;51.398;5.466;2023-06-04T13:19:18;101899.75;;;27.96;40.06
9421;BME280;4749;51.398;5.466;2023-06-04T13:21:48;101895.22;;;27.96;40.20
9421;BME280;4749;51.398;5.466;2023-06-04T13:24:16;101896.00;;;27.98;39.55